createdAt,value
2018-06-05T00:00:02.341Z,17.70
2018-06-05T00:02:30.838Z,17.70
2018-06-05T00:04:59.374Z,17.60
2018-06-05T00:07:27.895Z,17.60
2018-06-05T00:09:57.745Z,17.60
2018-06-05T00:12:26.224Z,17.50
2018-06-05T00:14:54.771Z,17.40
2018-06-05T00:17:23.285Z,17.30
2018-06-05T00:19:52.349Z,17.30
2018-06-05T00:22:20.847Z,17.30
2018-06-05T00:24:49.382Z,17.20
2018-06-05T00:27:17.925Z,17.20
2018-06-05T00:29:46.417Z,17.10
2018-06-05T00:32:14.926Z,17.10
2018-06-05T00:34:43.430Z,17.10
2018-06-05T00:37:11.962Z,17.00
2018-06-05T00:39:40.484Z,17.00
2018-06-05T00:42:08.977Z,17.00
2018-06-05T00:44:37.490Z,16.90
2018-06-05T00:47:05.992Z,16.80
2018-06-05T00:49:35.026Z,16.80
2018-06-05T00:52:07.885Z,16.80
2018-06-05T00:57:04.617Z,16.80
2018-06-05T00:59:33.764Z,16.70
2018-06-05T01:02:02.272Z,16.60
2018-06-05T01:04:30.813Z,16.60
2018-06-05T01:06:59.308Z,16.60
2018-06-05T01:09:27.801Z,16.60
2018-06-05T01:11:56.449Z,16.60
2018-06-05T01:14:24.963Z,16.60
2018-06-05T01:16:53.529Z,16.60
2018-06-05T01:19:22.045Z,16.50
2018-06-05T01:21:50.572Z,16.50
2018-06-05T01:24:19.100Z,16.40
2018-06-05T01:26:47.640Z,16.40
2018-06-05T01:29:16.737Z,16.40
2018-06-05T01:31:45.253Z,16.40
2018-06-05T01:34:13.727Z,16.30
2018-06-05T01:36:42.257Z,16.30
2018-06-05T01:39:10.761Z,16.20
2018-06-05T01:41:39.322Z,16.20
2018-06-05T01:44:08.682Z,16.20
2018-06-05T01:46:37.151Z,16.10
2018-06-05T01:49:05.690Z,16.10
2018-06-05T01:51:34.191Z,16.10
2018-06-05T01:54:02.697Z,16.00
2018-06-05T01:56:31.222Z,16.00
2018-06-05T01:59:00.214Z,16.00
2018-06-05T02:01:29.522Z,15.90
2018-06-05T02:03:58.006Z,15.90
2018-06-05T02:06:26.606Z,15.80
2018-06-05T02:08:55.108Z,15.80
2018-06-05T02:11:23.652Z,15.80
2018-06-05T02:13:52.141Z,15.70
2018-06-05T02:16:20.676Z,15.70
2018-06-05T02:18:49.184Z,15.70
2018-06-05T02:21:17.726Z,15.60
2018-06-05T02:23:46.225Z,15.60
2018-06-05T02:26:14.765Z,15.60
2018-06-05T02:28:43.287Z,15.60
2018-06-05T02:31:11.914Z,15.60
2018-06-05T02:33:40.444Z,15.50
2018-06-05T02:36:09.022Z,15.50
2018-06-05T02:38:37.574Z,15.40
2018-06-05T02:41:06.813Z,15.40
2018-06-05T02:43:35.342Z,15.40
2018-06-05T02:46:04.789Z,15.50
2018-06-05T02:48:33.294Z,15.40
2018-06-05T02:51:01.789Z,15.40
2018-06-05T02:53:31.033Z,15.30
2018-06-05T02:56:00.333Z,15.40
2018-06-05T02:58:28.855Z,15.50
2018-06-05T03:00:57.364Z,15.40
2018-06-05T03:03:25.875Z,15.40
2018-06-05T03:05:54.429Z,15.30
2018-06-05T03:08:22.990Z,15.20
2018-06-05T03:13:19.855Z,15.20
2018-06-05T03:15:48.405Z,15.10
2018-06-05T03:18:16.954Z,15.10
2018-06-05T03:20:45.499Z,15.00
2018-06-05T03:23:14.618Z,15.00
2018-06-05T03:25:43.241Z,15.00
2018-06-05T03:28:11.970Z,15.00
2018-06-05T03:30:40.509Z,14.90
2018-06-05T03:33:09.089Z,14.90
2018-06-05T03:35:37.622Z,14.90
2018-06-05T03:38:07.133Z,14.90
2018-06-05T03:40:35.674Z,14.90
2018-06-05T03:43:04.206Z,14.90
2018-06-05T03:45:33.046Z,14.90
2018-06-05T03:48:01.548Z,14.90
2018-06-05T03:50:30.093Z,14.90
2018-06-05T03:52:59.246Z,15.00
2018-06-05T03:55:28.921Z,15.00
2018-06-05T03:57:57.444Z,15.00
2018-06-05T04:00:26.470Z,15.00
2018-06-05T04:02:55.150Z,15.00
2018-06-05T04:05:23.650Z,15.00
2018-06-05T04:07:52.182Z,15.20
2018-06-05T04:10:20.704Z,15.10
2018-06-05T04:12:49.268Z,15.10
2018-06-05T04:15:17.770Z,15.10
2018-06-05T04:17:46.369Z,15.20
2018-06-05T04:20:14.923Z,15.20
2018-06-05T04:25:11.796Z,15.10
2018-06-05T04:27:40.404Z,15.20
2018-06-05T04:30:08.942Z,15.10
2018-06-05T04:32:37.469Z,15.00
2018-06-05T04:35:06.123Z,15.10
2018-06-05T04:37:34.909Z,15.20
2018-06-05T04:42:31.878Z,15.30
2018-06-05T04:45:00.416Z,15.40
2018-06-05T04:47:29.046Z,15.40
2018-06-05T04:52:25.768Z,15.60
2018-06-05T04:54:54.420Z,15.70
2018-06-05T04:57:23.560Z,15.80
2018-06-05T04:59:52.048Z,15.90
2018-06-05T05:02:20.632Z,16.00
2018-06-05T05:04:49.862Z,16.00
2018-06-05T05:07:18.420Z,16.20
2018-06-05T05:09:46.940Z,16.20
2018-06-05T05:12:15.931Z,16.30
2018-06-05T05:14:44.442Z,16.30
2018-06-05T05:17:12.978Z,16.40
2018-06-05T05:19:41.480Z,16.40
2018-06-05T05:22:09.970Z,16.40
2018-06-05T05:24:38.517Z,16.50
2018-06-05T05:27:07.258Z,16.50
2018-06-05T05:29:35.890Z,16.60
2018-06-05T05:32:05.266Z,16.60
2018-06-05T05:34:33.873Z,16.70
2018-06-05T05:37:03.053Z,16.70
2018-06-05T05:39:31.648Z,16.70
2018-06-05T05:42:00.153Z,16.70
2018-06-05T05:44:28.789Z,16.80
2018-06-05T05:46:57.334Z,16.90
2018-06-05T05:49:26.480Z,17.00
2018-06-05T05:51:55.068Z,17.10
2018-06-05T05:54:23.580Z,17.10
2018-06-05T05:56:52.110Z,17.40
2018-06-05T05:59:21.470Z,17.50
2018-06-05T06:01:50.016Z,17.60
2018-06-05T06:04:18.545Z,17.70
2018-06-05T06:06:47.093Z,17.90
2018-06-05T06:09:15.668Z,18.00
2018-06-05T06:11:44.205Z,18.10
2018-06-05T06:14:12.791Z,18.10
2018-06-05T06:16:42.128Z,18.20
2018-06-05T06:21:38.829Z,18.40
2018-06-05T06:24:07.341Z,18.50
2018-06-05T06:26:35.862Z,18.60
2018-06-05T06:29:05.389Z,18.70
2018-06-05T06:31:34.394Z,18.70
2018-06-05T06:34:02.956Z,18.80
2018-06-05T06:36:32.097Z,18.90
2018-06-05T06:39:00.616Z,19.00
2018-06-05T06:41:29.145Z,19.10
2018-06-05T06:43:58.267Z,19.10
2018-06-05T06:46:26.813Z,19.10
2018-06-05T06:48:56.643Z,19.30
2018-06-05T06:51:25.145Z,19.30
2018-06-05T06:53:53.665Z,19.50
2018-06-05T06:56:22.931Z,19.60
2018-06-05T06:58:51.445Z,19.80
2018-06-05T07:01:20.582Z,19.80
2018-06-05T07:03:49.102Z,19.90
2018-06-05T07:06:17.677Z,19.90
2018-06-05T07:08:46.279Z,20.00
2018-06-05T07:11:14.795Z,20.10
2018-06-05T07:13:43.366Z,20.30
2018-06-05T07:16:12.013Z,20.40
2018-06-05T07:18:40.536Z,20.60
2018-06-05T07:21:09.020Z,20.60
2018-06-05T07:23:37.508Z,20.70
2018-06-05T07:26:06.648Z,20.70
2018-06-05T07:28:35.688Z,20.90
2018-06-05T07:31:04.178Z,21.20
2018-06-05T07:33:32.765Z,20.90
2018-06-05T07:36:01.309Z,21.10
2018-06-05T07:38:29.846Z,21.20
2018-06-05T07:40:58.889Z,21.40
2018-06-05T07:43:27.922Z,21.60
2018-06-05T07:45:56.432Z,21.70
2018-06-05T07:48:25.082Z,21.90
2018-06-05T07:50:53.596Z,22.20
2018-06-05T07:53:22.108Z,22.10
2018-06-05T07:55:51.077Z,22.60
2018-06-05T07:58:19.627Z,23.40
2018-06-05T08:00:48.201Z,24.20
2018-06-05T08:03:16.697Z,23.90
2018-06-05T08:05:45.214Z,24.80
2018-06-05T08:08:13.914Z,25.70
2018-06-05T08:10:43.051Z,25.80
2018-06-05T08:13:11.573Z,26.00
2018-06-05T08:15:40.053Z,27.30
2018-06-05T08:18:09.742Z,28.30
2018-06-05T08:20:38.962Z,29.10
2018-06-05T08:23:07.489Z,29.60
2018-06-05T08:25:36.120Z,30.50
2018-06-05T08:28:04.595Z,31.10
2018-06-05T08:30:33.112Z,32.20
2018-06-05T08:33:01.624Z,31.60
2018-06-05T08:35:30.134Z,32.70
2018-06-05T08:37:58.737Z,33.00
2018-06-05T08:40:27.255Z,33.20
2018-06-05T08:42:55.781Z,33.30
2018-06-05T08:45:24.958Z,32.30
2018-06-05T08:47:53.476Z,33.30
2018-06-05T08:50:21.986Z,33.80
2018-06-05T08:52:51.472Z,33.70
2018-06-05T08:55:19.976Z,32.90
2018-06-05T08:57:48.453Z,34.20
2018-06-05T09:00:17.473Z,34.90
2018-06-05T09:02:45.980Z,34.50
2018-06-05T09:05:15.120Z,34.70
2018-06-05T09:07:43.626Z,31.80
2018-06-05T09:10:12.138Z,31.30
2018-06-05T09:12:40.665Z,32.10
2018-06-05T09:15:09.186Z,33.80
2018-06-05T09:17:39.237Z,34.40
2018-06-05T09:20:08.598Z,34.60
2018-06-05T09:22:37.123Z,34.30
2018-06-05T09:25:05.717Z,35.20
2018-06-05T09:27:34.224Z,35.10
2018-06-05T09:30:02.801Z,34.90
2018-06-05T09:32:31.493Z,35.20
2018-06-05T09:35:00.106Z,34.90
2018-06-05T09:37:28.722Z,34.30
2018-06-05T09:39:57.219Z,35.40
2018-06-05T09:42:25.733Z,34.30
2018-06-05T09:44:54.851Z,34.50
2018-06-05T09:47:24.039Z,34.20
2018-06-05T09:49:52.614Z,34.20
2018-06-05T09:52:21.246Z,35.00
2018-06-05T09:54:49.687Z,33.90
2018-06-05T09:57:18.193Z,35.10
2018-06-05T09:59:46.684Z,32.90
2018-06-05T10:02:15.182Z,34.30
2018-06-05T10:04:46.380Z,34.50
2018-06-05T10:07:14.886Z,34.70
2018-06-05T10:09:43.409Z,35.10
2018-06-05T10:12:12.655Z,34.80
2018-06-05T10:14:41.193Z,35.10
2018-06-05T10:17:09.707Z,34.50
2018-06-05T10:19:38.262Z,34.90
2018-06-05T10:22:07.265Z,34.80
2018-06-05T10:24:35.787Z,34.60
2018-06-05T10:27:04.538Z,34.90
2018-06-05T10:29:33.161Z,34.40
2018-06-05T10:32:01.746Z,34.10
2018-06-05T10:34:30.776Z,34.70
2018-06-05T10:36:59.416Z,35.10
2018-06-05T10:39:27.927Z,34.50
2018-06-05T10:41:56.465Z,33.90
2018-06-05T10:44:24.977Z,34.60
2018-06-05T10:46:53.680Z,34.70
2018-06-05T10:49:22.204Z,33.60
2018-06-05T10:51:50.720Z,34.10
2018-06-05T10:54:19.376Z,34.30
2018-06-05T10:56:47.888Z,33.60
2018-06-05T10:59:17.030Z,34.30
2018-06-05T11:01:45.550Z,34.30
2018-06-05T11:04:14.097Z,33.70
2018-06-05T11:06:42.626Z,33.70
2018-06-05T11:09:11.262Z,33.60
2018-06-05T11:11:40.038Z,33.00
2018-06-05T11:14:08.571Z,32.40
2018-06-05T11:16:37.098Z,31.80
2018-06-05T11:19:06.948Z,32.00
2018-06-05T11:21:35.479Z,31.20
2018-06-05T11:24:04.019Z,31.70
2018-06-05T11:26:32.564Z,32.00
2018-06-05T11:29:01.062Z,32.70
2018-06-05T11:31:29.582Z,32.70
2018-06-05T11:33:58.125Z,32.80
2018-06-05T11:36:26.738Z,32.70
2018-06-05T11:38:55.301Z,32.30
2018-06-05T11:41:23.831Z,32.70
2018-06-05T11:43:52.334Z,32.10
2018-06-05T11:46:21.345Z,32.70
2018-06-05T11:48:49.845Z,32.90
2018-06-05T11:51:18.335Z,32.00
2018-06-05T11:53:46.985Z,32.90
2018-06-05T11:56:16.007Z,33.40
2018-06-05T11:58:44.565Z,33.40
2018-06-05T12:01:13.753Z,32.40
2018-06-05T12:03:42.333Z,31.50
2018-06-05T12:06:10.827Z,31.80
2018-06-05T12:08:40.036Z,32.40
2018-06-05T12:11:08.553Z,32.50
2018-06-05T12:13:37.136Z,32.50
2018-06-05T12:16:05.648Z,31.50
2018-06-05T12:18:34.128Z,31.70
2018-06-05T12:21:03.574Z,32.30
2018-06-05T12:23:32.103Z,32.60
2018-06-05T12:26:00.616Z,33.10
2018-06-05T12:28:30.067Z,33.60
2018-06-05T12:30:58.648Z,33.40
2018-06-05T12:33:27.110Z,33.70
2018-06-05T12:35:55.661Z,34.00
2018-06-05T12:38:24.155Z,33.70
2018-06-05T12:40:52.680Z,34.10
2018-06-05T12:43:22.700Z,33.20
2018-06-05T12:45:51.169Z,34.20
2018-06-05T12:48:19.696Z,34.90
2018-06-05T12:50:48.429Z,34.90
2018-06-05T12:53:16.954Z,34.50
2018-06-05T12:55:45.463Z,35.00
2018-06-05T12:58:14.612Z,34.40
2018-06-05T13:00:43.172Z,34.10
2018-06-05T13:03:11.698Z,34.20
2018-06-05T13:05:40.257Z,34.40
2018-06-05T13:08:08.739Z,35.00
2018-06-05T13:10:37.245Z,36.00
2018-06-05T13:13:05.881Z,36.10
2018-06-05T13:15:34.593Z,36.00
2018-06-05T13:18:03.835Z,36.00
2018-06-05T13:20:32.949Z,35.60
2018-06-05T13:23:01.557Z,34.60
2018-06-05T13:25:30.564Z,33.40
2018-06-05T13:27:59.078Z,33.00
2018-06-05T13:30:28.495Z,32.70
2018-06-05T13:32:57.047Z,32.30
2018-06-05T13:35:25.601Z,31.40
2018-06-05T13:37:54.173Z,31.20
2018-06-05T13:40:22.701Z,30.80
2018-06-05T13:42:51.884Z,30.70
2018-06-05T13:45:20.584Z,31.20
2018-06-05T13:47:49.130Z,32.20
2018-06-05T13:50:17.638Z,31.70
2018-06-05T13:52:46.146Z,31.00
2018-06-05T13:55:14.676Z,30.70
2018-06-05T13:57:43.685Z,32.00
2018-06-05T14:00:12.711Z,32.60
2018-06-05T14:02:41.282Z,32.00
2018-06-05T14:05:10.510Z,32.20
2018-06-05T14:07:39.213Z,33.30
2018-06-05T14:10:07.834Z,33.40
2018-06-05T14:12:36.330Z,33.50
2018-06-05T14:15:05.166Z,33.10
2018-06-05T14:17:33.668Z,32.20
2018-06-05T14:20:02.160Z,32.00
2018-06-05T14:22:30.842Z,31.90
2018-06-05T14:24:59.500Z,31.60
2018-06-05T14:27:28.054Z,32.80
2018-06-05T14:29:56.797Z,33.30
2018-06-05T14:32:25.358Z,33.00
2018-06-05T14:34:53.859Z,33.30
2018-06-05T14:37:22.949Z,34.10
2018-06-05T14:39:52.109Z,34.30
2018-06-05T14:42:21.530Z,34.60
2018-06-05T14:44:50.074Z,34.90
2018-06-05T14:47:18.577Z,35.30
2018-06-05T14:49:47.163Z,35.30
2018-06-05T14:52:16.257Z,36.10
2018-06-05T14:54:44.748Z,34.20
2018-06-05T14:57:13.295Z,33.50
2018-06-05T14:59:42.252Z,33.60
2018-06-05T15:02:10.839Z,33.10
2018-06-05T15:04:39.390Z,32.00
2018-06-05T15:07:08.804Z,32.10
2018-06-05T15:09:37.798Z,32.20
2018-06-05T15:12:06.668Z,32.20
2018-06-05T15:14:35.182Z,31.30
2018-06-05T15:17:03.731Z,31.20
2018-06-05T15:19:32.224Z,31.30
2018-06-05T15:22:00.786Z,31.30
2018-06-05T15:24:29.407Z,31.00
2018-06-05T15:26:58.274Z,30.50
2018-06-05T15:31:55.155Z,29.70
2018-06-05T15:34:24.287Z,29.90
2018-06-05T15:36:54.250Z,30.00
2018-06-05T15:39:22.915Z,29.70
2018-06-05T15:41:52.363Z,29.20
2018-06-05T15:44:20.943Z,29.00
2018-06-05T15:46:49.476Z,28.60
2018-06-05T15:49:18.057Z,28.50
2018-06-05T15:51:46.565Z,28.40
2018-06-05T15:54:15.088Z,28.40
2018-06-05T15:56:44.094Z,28.80
2018-06-05T15:59:12.674Z,28.50
2018-06-05T16:01:41.192Z,28.80
2018-06-05T16:04:09.822Z,28.70
2018-06-05T16:06:38.352Z,28.70
2018-06-05T16:09:09.460Z,28.70
2018-06-05T16:11:38.086Z,28.40
2018-06-05T16:14:07.130Z,28.20
2018-06-05T16:16:35.697Z,27.90
2018-06-05T16:19:05.162Z,28.20
2018-06-05T16:21:33.677Z,28.40
2018-06-05T16:24:02.181Z,28.20
2018-06-05T16:26:30.813Z,28.10
2018-06-05T16:28:59.389Z,27.60
2018-06-05T16:31:38.609Z,27.40
2018-06-05T16:34:11.606Z,27.30
2018-06-05T16:36:45.044Z,27.20
2018-06-05T16:39:20.906Z,27.20
2018-06-05T16:41:57.832Z,27.40
2018-06-05T16:44:30.544Z,27.30
2018-06-05T16:46:59.990Z,27.20
2018-06-05T16:49:28.605Z,27.00
2018-06-05T16:52:00.361Z,27.00
2018-06-05T16:54:28.888Z,27.20
2018-06-05T16:56:57.429Z,27.10
2018-06-05T16:59:26.042Z,27.10
2018-06-05T17:01:54.599Z,27.20
2018-06-05T17:04:23.783Z,26.90
2018-06-05T17:06:52.241Z,26.70
2018-06-05T17:09:21.369Z,26.60
2018-06-05T17:11:49.967Z,26.40
2018-06-05T17:14:18.475Z,26.70
2018-06-05T17:16:46.987Z,26.60
2018-06-05T17:19:15.502Z,26.60
2018-06-05T17:21:44.212Z,26.50
2018-06-05T17:24:12.771Z,26.50
2018-06-05T17:26:41.361Z,26.60
2018-06-05T17:29:09.916Z,26.70
2018-06-05T17:31:38.493Z,26.70
2018-06-05T17:34:07.062Z,26.70
2018-06-05T17:36:36.812Z,26.60
2018-06-05T17:39:07.468Z,26.30
2018-06-05T17:41:36.002Z,26.20
2018-06-05T17:44:04.685Z,26.30
2018-06-05T17:46:34.484Z,26.10
2018-06-05T17:49:03.859Z,26.10
2018-06-05T17:51:32.674Z,25.90
2018-06-05T17:54:01.165Z,26.10
2018-06-05T17:56:30.258Z,25.70
2018-06-05T17:58:59.439Z,25.80
2018-06-05T18:01:28.637Z,26.00
2018-06-05T18:03:57.178Z,26.00
2018-06-05T18:06:25.798Z,25.80
2018-06-05T18:08:54.925Z,25.80
2018-06-05T18:11:23.522Z,25.60
2018-06-05T18:13:52.066Z,25.60
2018-06-05T18:16:21.426Z,25.60
2018-06-05T18:21:18.347Z,25.50
2018-06-05T18:23:47.287Z,25.60
2018-06-05T18:26:16.567Z,25.60
2018-06-05T18:28:45.122Z,25.40
2018-06-05T18:31:13.632Z,25.40
2018-06-05T18:33:42.786Z,25.30
2018-06-05T18:36:11.318Z,25.20
2018-06-05T18:38:40.004Z,25.10
2018-06-05T18:43:36.693Z,24.90
2018-06-05T18:46:05.819Z,24.90
2018-06-05T18:48:35.025Z,24.90
2018-06-05T18:51:06.249Z,24.80
2018-06-05T18:53:34.969Z,24.80
2018-06-05T18:56:04.759Z,24.70
2018-06-05T18:58:33.274Z,24.50
2018-06-05T19:01:01.829Z,24.40
2018-06-05T19:03:30.345Z,24.30
2018-06-05T19:05:58.859Z,24.30
2018-06-05T19:08:28.046Z,24.20
2018-06-05T19:10:57.183Z,24.10
2018-06-05T19:13:26.365Z,24.00
2018-06-05T19:15:55.457Z,24.00
2018-06-05T19:18:23.988Z,23.90
2018-06-05T19:20:52.509Z,23.70
2018-06-05T19:23:21.084Z,23.60
2018-06-05T19:25:50.175Z,23.50
2018-06-05T19:28:18.703Z,23.50
2018-06-05T19:30:47.212Z,23.40
2018-06-05T19:33:15.745Z,23.40
2018-06-05T19:35:44.333Z,23.20
2018-06-05T19:38:13.012Z,23.20
2018-06-05T19:40:42.876Z,23.10
2018-06-05T19:43:11.463Z,23.00
2018-06-05T19:45:40.011Z,22.90
2018-06-05T19:48:09.073Z,22.80
2018-06-05T19:50:37.630Z,22.70
2018-06-05T19:53:06.350Z,22.60
2018-06-05T19:55:35.000Z,22.60
2018-06-05T19:58:03.550Z,22.40
2018-06-05T20:00:32.553Z,22.30
2018-06-05T20:03:01.631Z,22.30
2018-06-05T20:05:30.300Z,22.20
2018-06-05T20:07:59.757Z,22.20
2018-06-05T20:10:28.321Z,22.10
2018-06-05T20:12:56.875Z,22.10
2018-06-05T20:15:25.350Z,22.00
2018-06-05T20:17:54.406Z,21.90
2018-06-05T20:20:22.928Z,21.80
2018-06-05T20:22:51.448Z,21.60
2018-06-05T20:25:20.553Z,21.50
2018-06-05T20:27:49.052Z,21.40
2018-06-05T20:30:17.585Z,21.40
2018-06-05T20:32:48.208Z,21.50
2018-06-05T20:35:17.703Z,21.50
2018-06-05T20:37:46.227Z,21.40
2018-06-05T20:40:14.744Z,21.40
2018-06-05T20:45:12.429Z,21.30
2018-06-05T20:47:40.965Z,21.30
2018-06-05T20:50:10.286Z,21.30
2018-06-05T20:52:38.797Z,21.20
2018-06-05T20:55:07.932Z,21.20
2018-06-05T20:57:36.953Z,21.10
2018-06-05T21:00:05.850Z,21.00
2018-06-05T21:02:34.384Z,20.90
2018-06-05T21:05:03.651Z,20.90
2018-06-05T21:07:32.182Z,20.90
2018-06-05T21:10:00.715Z,20.80
2018-06-05T21:12:29.246Z,20.70
2018-06-05T21:14:57.755Z,20.70
2018-06-05T21:17:26.266Z,20.70
2018-06-05T21:19:54.814Z,20.60
2018-06-05T21:22:23.353Z,20.50
2018-06-05T21:24:52.831Z,20.50
2018-06-05T21:27:21.338Z,20.50
2018-06-05T21:29:50.808Z,20.40
2018-06-05T21:32:19.293Z,20.40
2018-06-05T21:34:47.826Z,20.30
2018-06-05T21:37:16.346Z,20.20
2018-06-05T21:39:44.867Z,20.10
2018-06-05T21:42:13.376Z,20.10
2018-06-05T21:44:42.562Z,20.10
2018-06-05T21:47:11.100Z,20.00
2018-06-05T21:49:39.604Z,19.90
2018-06-05T21:52:08.744Z,19.90
2018-06-05T21:54:37.313Z,19.70
2018-06-05T21:57:06.037Z,19.70
2018-06-05T21:59:34.576Z,19.80
2018-06-05T22:02:03.145Z,19.70
2018-06-05T22:04:31.664Z,19.60
2018-06-05T22:07:00.695Z,19.70
2018-06-05T22:09:29.711Z,19.70
2018-06-05T22:11:58.309Z,19.70
2018-06-05T22:14:27.065Z,19.70
2018-06-05T22:16:55.549Z,19.70
2018-06-05T22:19:24.092Z,19.60
2018-06-05T22:21:52.624Z,19.60
2018-06-05T22:24:21.180Z,19.50
2018-06-05T22:26:50.200Z,19.50
2018-06-05T22:29:18.753Z,19.40
2018-06-05T22:31:47.237Z,19.30
2018-06-05T22:34:16.649Z,19.30
2018-06-05T22:36:45.667Z,19.30
2018-06-05T22:39:14.989Z,19.20
2018-06-05T22:41:43.592Z,19.20
2018-06-05T22:44:12.241Z,19.10
2018-06-05T22:46:40.779Z,19.00
2018-06-05T22:49:09.414Z,19.00
2018-06-05T22:51:38.480Z,19.00
2018-06-05T22:54:07.714Z,18.90
2018-06-05T22:56:36.244Z,18.90
2018-06-05T22:59:04.869Z,18.80
2018-06-05T23:01:33.366Z,18.80
2018-06-05T23:04:01.885Z,18.70
2018-06-05T23:06:30.389Z,18.70
2018-06-05T23:08:58.932Z,18.60
2018-06-05T23:11:28.389Z,18.50
2018-06-05T23:13:57.554Z,18.50
2018-06-05T23:16:26.091Z,18.50
2018-06-05T23:18:55.187Z,18.40
2018-06-05T23:21:23.718Z,18.40
2018-06-05T23:23:52.247Z,18.40
2018-06-05T23:26:20.814Z,18.30
2018-06-05T23:28:50.234Z,18.30
2018-06-05T23:31:18.779Z,18.20
2018-06-05T23:33:47.355Z,18.20
2018-06-05T23:36:15.931Z,18.20
2018-06-05T23:38:44.625Z,18.10
2018-06-05T23:41:13.178Z,18.10
2018-06-05T23:43:42.674Z,18.00
2018-06-05T23:46:11.258Z,18.00
2018-06-05T23:48:40.358Z,17.90
2018-06-05T23:51:08.886Z,17.90
2018-06-05T23:53:37.415Z,17.80
2018-06-05T23:56:05.912Z,17.80
2018-06-05T23:58:34.417Z,17.70
